createdAt,value
2018-05-24T00:01:56.437Z,101959.16
2018-05-24T00:05:02.495Z,101957.17
2018-05-24T00:08:08.199Z,101960.80
2018-05-24T00:11:13.897Z,101959.20
2018-05-24T00:14:19.808Z,101959.27
2018-05-24T00:17:25.957Z,101960.34
2018-05-24T00:20:31.605Z,101970.64
2018-05-24T00:23:37.730Z,101973.02
2018-05-24T00:26:42.953Z,101973.25
2018-05-24T00:29:48.154Z,101975.62
2018-05-24T00:32:55.489Z,101979.59
2018-05-24T00:36:01.307Z,101979.02
2018-05-24T00:39:07.325Z,101982.64
2018-05-24T00:42:12.961Z,101981.09
2018-05-24T00:45:18.176Z,101982.90
2018-05-24T00:48:23.685Z,101992.06
2018-05-24T00:51:28.904Z,101991.71
2018-05-24T00:54:33.860Z,101990.58
2018-05-24T00:57:39.243Z,101995.58
2018-05-24T01:00:44.452Z,101989.23
2018-05-24T01:03:49.663Z,101985.36
2018-05-24T01:06:55.989Z,101982.09
2018-05-24T01:10:01.559Z,101983.41
2018-05-24T01:13:07.711Z,101981.70
2018-05-24T01:16:13.069Z,101978.25
2018-05-24T01:19:18.855Z,101979.08
2018-05-24T01:22:24.028Z,101978.79
2018-05-24T01:25:29.254Z,101981.50
2018-05-24T01:28:35.175Z,101974.62
2018-05-24T01:31:40.679Z,101978.59
2018-05-24T01:34:46.109Z,101978.98
2018-05-24T01:37:51.164Z,101975.56
2018-05-24T01:40:56.512Z,101979.10
2018-05-24T01:44:01.707Z,101974.36
2018-05-24T01:47:07.112Z,101971.58
2018-05-24T01:50:12.049Z,101969.42
2018-05-24T01:53:17.252Z,101975.09
2018-05-24T01:56:22.474Z,101971.34
2018-05-24T01:59:27.677Z,101970.59
2018-05-24T02:02:33.788Z,101969.82
2018-05-24T02:05:39.865Z,101967.88
2018-05-24T02:08:45.789Z,101970.42
2018-05-24T02:11:51.763Z,101973.48
2018-05-24T02:14:57.707Z,101974.86
2018-05-24T02:18:02.909Z,101970.06
2018-05-24T02:21:09.001Z,101967.16
2018-05-24T02:24:14.644Z,101965.98
2018-05-24T02:27:19.827Z,101968.05
2018-05-24T02:30:24.756Z,101961.80
2018-05-24T02:33:30.868Z,101958.49
2018-05-24T02:36:36.261Z,101955.55
2018-05-24T02:39:42.381Z,101952.30
2018-05-24T02:42:48.294Z,101952.89
2018-05-24T02:45:54.121Z,101951.58
2018-05-24T02:48:59.844Z,101951.63
2018-05-24T02:52:05.961Z,101953.44
2018-05-24T02:55:12.108Z,101958.05
2018-05-24T02:58:18.110Z,101955.08
2018-05-24T03:01:23.323Z,101948.45
2018-05-24T03:04:29.361Z,101948.97
2018-05-24T03:07:35.404Z,101943.16
2018-05-24T03:10:41.416Z,101948.34
2018-05-24T03:13:47.633Z,101946.20
2018-05-24T03:16:53.741Z,101937.73
2018-05-24T03:19:59.980Z,101932.99
2018-05-24T03:23:05.692Z,101937.28
2018-05-24T03:26:10.890Z,101932.58
2018-05-24T03:29:16.091Z,101926.46
2018-05-24T03:32:21.309Z,101930.00
2018-05-24T03:35:27.024Z,101929.28
2018-05-24T03:38:32.964Z,101928.29
2018-05-24T03:41:38.829Z,101929.91
2018-05-24T03:44:44.048Z,101930.39
2018-05-24T03:47:49.256Z,101930.93
2018-05-24T03:50:55.312Z,101929.91
2018-05-24T03:54:01.240Z,101930.98
2018-05-24T03:57:07.380Z,101936.47
2018-05-24T04:00:24.432Z,101935.99
2018-05-24T04:03:41.171Z,101939.05
2018-05-24T04:06:46.089Z,101936.83
2018-05-24T04:09:52.240Z,101934.13
2018-05-24T04:12:59.996Z,101934.40
2018-05-24T04:16:06.152Z,101939.95
2018-05-24T04:19:11.349Z,101940.48
2018-05-24T04:22:17.124Z,101938.84
2018-05-24T04:25:23.089Z,101938.65
2018-05-24T04:28:29.235Z,101936.64
2018-05-24T04:31:34.459Z,101942.97
2018-05-24T04:34:39.728Z,101940.11
2018-05-24T04:37:44.955Z,101943.95
2018-05-24T04:40:50.382Z,101942.48
2018-05-24T04:43:55.577Z,101939.12
2018-05-24T04:47:01.785Z,101951.19
2018-05-24T04:50:07.600Z,101959.83
2018-05-24T04:53:13.700Z,101952.39
2018-05-24T04:56:19.177Z,101945.46
2018-05-24T04:59:24.421Z,101951.42
2018-05-24T05:02:29.590Z,101954.45
2018-05-24T05:05:36.460Z,101949.46
2018-05-24T05:08:42.264Z,101950.05
2018-05-24T05:11:48.300Z,101963.23
2018-05-24T05:14:54.328Z,101957.94
2018-05-24T05:17:59.768Z,101949.66
2018-05-24T05:21:05.503Z,101952.45
2018-05-24T05:24:10.704Z,101952.30
2018-05-24T05:27:15.676Z,101956.38
2018-05-24T05:30:20.873Z,101953.64
2018-05-24T05:33:26.989Z,101952.56
2018-05-24T05:36:32.603Z,101956.72
2018-05-24T05:39:37.793Z,101959.88
2018-05-24T05:42:43.121Z,101959.70
2018-05-24T05:45:48.328Z,101962.02
2018-05-24T05:48:53.520Z,101962.68
2018-05-24T05:51:59.649Z,101960.20
2018-05-24T05:55:04.806Z,101963.00
2018-05-24T05:58:10.904Z,101961.86
2018-05-24T06:01:16.216Z,101964.16
2018-05-24T06:04:22.340Z,101962.97
2018-05-24T06:07:28.449Z,101964.81
2018-05-24T06:10:34.564Z,101964.48
2018-05-24T06:13:40.397Z,101960.75
2018-05-24T06:16:46.430Z,101965.58
2018-05-24T06:19:52.345Z,101968.67
2018-05-24T06:22:58.363Z,101979.52
2018-05-24T06:26:04.376Z,101980.91
2018-05-24T06:29:10.195Z,101976.73
2018-05-24T06:32:16.361Z,101974.22
2018-05-24T06:35:21.564Z,101981.61
2018-05-24T06:38:26.773Z,101970.88
2018-05-24T06:41:32.858Z,101979.97
2018-05-24T06:44:38.488Z,101976.96
2018-05-24T06:47:45.499Z,101983.42
2018-05-24T06:50:51.705Z,101986.50
2018-05-24T06:53:57.520Z,101983.85
2018-05-24T06:57:03.678Z,101972.64
2018-05-24T07:00:08.886Z,101977.41
2018-05-24T07:03:15.016Z,101980.84
2018-05-24T07:06:21.012Z,101985.97
2018-05-24T07:09:27.144Z,101980.70
2018-05-24T07:12:33.010Z,101984.94
2018-05-24T07:15:39.218Z,101988.70
2018-05-24T07:18:45.132Z,101987.73
2018-05-24T07:21:51.260Z,101982.87
2018-05-24T07:24:57.277Z,101988.80
2018-05-24T07:28:02.474Z,101983.05
2018-05-24T07:31:07.676Z,101974.78
2018-05-24T07:34:13.066Z,101975.50
2018-05-24T07:37:19.180Z,101981.36
2018-05-24T07:40:24.380Z,101975.13
2018-05-24T07:43:30.211Z,101977.97
2018-05-24T07:46:35.408Z,101977.28
2018-05-24T07:49:41.536Z,101976.64
2018-05-24T07:52:47.649Z,101981.14
2018-05-24T07:55:53.555Z,101973.58
2018-05-24T07:58:59.680Z,101978.56
2018-05-24T08:02:05.284Z,101971.34
2018-05-24T08:05:11.300Z,101976.29
2018-05-24T08:08:16.516Z,101974.25
2018-05-24T08:11:22.621Z,101967.48
2018-05-24T08:14:28.548Z,101970.22
2018-05-24T08:17:35.472Z,101965.06
2018-05-24T08:20:41.390Z,101965.45
2018-05-24T08:23:47.416Z,101971.59
2018-05-24T08:26:53.345Z,101960.45
2018-05-24T08:29:59.163Z,101968.91
2018-05-24T08:33:05.281Z,101970.61
2018-05-24T08:36:11.413Z,101962.95
2018-05-24T08:39:17.529Z,101968.09
2018-05-24T08:42:22.725Z,101962.55
2018-05-24T08:45:27.939Z,101966.45
2018-05-24T08:48:32.852Z,101964.45
2018-05-24T08:51:38.578Z,101969.00
2018-05-24T08:54:44.701Z,101964.01
2018-05-24T08:57:50.329Z,101963.70
2018-05-24T09:00:56.340Z,101962.50
2018-05-24T09:04:02.284Z,101949.56
2018-05-24T09:07:08.296Z,101957.17
2018-05-24T09:10:19.617Z,101955.10
2018-05-24T09:13:31.566Z,101949.30
2018-05-24T09:16:42.441Z,101946.82
2018-05-24T09:19:55.011Z,101942.20
2018-05-24T09:23:05.780Z,101943.88
2018-05-24T09:26:16.485Z,101946.49
2018-05-24T09:29:27.689Z,101943.11
2018-05-24T09:32:38.504Z,101950.70
2018-05-24T09:35:49.796Z,101948.87
2018-05-24T09:39:00.654Z,101947.05
2018-05-24T09:42:11.652Z,101943.45
2018-05-24T09:45:23.196Z,101936.77
2018-05-24T09:48:34.003Z,101942.30
2018-05-24T09:51:45.554Z,101931.97
2018-05-24T09:54:56.824Z,101928.75
2018-05-24T09:58:07.645Z,101927.38
2018-05-24T10:01:19.004Z,101924.45
2018-05-24T10:04:30.607Z,101926.58
2018-05-24T10:07:41.447Z,101912.86
2018-05-24T10:10:53.005Z,101912.16
2018-05-24T10:14:03.692Z,101907.79
2018-05-24T10:17:15.495Z,101908.75
2018-05-24T10:20:27.542Z,101896.94
2018-05-24T10:23:38.692Z,101897.02
2018-05-24T10:26:50.474Z,101895.20
2018-05-24T10:29:56.920Z,101898.23
2018-05-24T10:33:02.316Z,101897.52
2018-05-24T10:36:07.540Z,101892.05
2018-05-24T10:39:13.677Z,101886.16
2018-05-24T10:42:19.785Z,101889.96
2018-05-24T10:45:25.688Z,101884.16
2018-05-24T10:48:30.896Z,101886.10
2018-05-24T10:51:36.111Z,101878.83
2018-05-24T10:54:41.340Z,101885.53
2018-05-24T10:57:47.395Z,101879.96
2018-05-24T11:00:52.594Z,101884.17
2018-05-24T11:03:58.924Z,101877.73
2018-05-24T11:07:05.060Z,101882.02
2018-05-24T11:10:10.984Z,101867.59
2018-05-24T11:13:18.081Z,101870.84
2018-05-24T11:16:23.911Z,101871.92
2018-05-24T11:19:30.212Z,101870.78
2018-05-24T11:22:35.443Z,101866.10
2018-05-24T11:25:41.112Z,101854.52
2018-05-24T11:28:46.353Z,101859.20
2018-05-24T11:31:51.605Z,101855.58
2018-05-24T11:34:56.948Z,101853.17
2018-05-24T11:38:02.134Z,101854.77
2018-05-24T11:41:07.558Z,101857.59
2018-05-24T11:44:12.764Z,101846.48
2018-05-24T11:47:18.180Z,101853.15
2018-05-24T11:50:24.485Z,101850.73
2018-05-24T11:53:30.745Z,101827.67
2018-05-24T11:56:36.383Z,101829.57
2018-05-24T11:59:41.792Z,101831.38
2018-05-24T12:02:46.998Z,101826.95
2018-05-24T12:05:53.644Z,101816.20
2018-05-24T12:08:59.257Z,101825.59
2018-05-24T12:12:04.880Z,101825.11
2018-05-24T12:15:10.118Z,101812.64
2018-05-24T12:18:16.101Z,101809.87
2018-05-24T12:21:21.757Z,101809.44
2018-05-24T12:24:26.956Z,101813.58
2018-05-24T12:27:32.987Z,101806.55
2018-05-24T12:30:38.658Z,101792.86
2018-05-24T12:33:44.855Z,101790.58
2018-05-24T12:36:50.748Z,101799.66
2018-05-24T12:39:56.751Z,101787.68
2018-05-24T12:43:02.860Z,101790.99
2018-05-24T12:46:08.064Z,101789.20
2018-05-24T12:49:13.273Z,101782.96
2018-05-24T12:52:18.492Z,101777.56
2018-05-24T12:55:23.400Z,101779.79
2018-05-24T12:58:29.152Z,101775.56
2018-05-24T13:01:34.352Z,101760.81
2018-05-24T13:04:40.672Z,101762.55
2018-05-24T13:07:46.405Z,101756.74
2018-05-24T13:10:52.548Z,101760.24
2018-05-24T13:13:58.040Z,101755.96
2018-05-24T13:17:03.711Z,101753.57
2018-05-24T13:20:09.189Z,101751.55
2018-05-24T13:23:14.330Z,101744.83
2018-05-24T13:26:18.911Z,101753.58
2018-05-24T13:29:24.549Z,101745.50
2018-05-24T13:32:30.392Z,101738.52
2018-05-24T13:35:36.313Z,101731.78
2018-05-24T13:38:41.233Z,101726.56
2018-05-24T13:41:45.843Z,101725.78
2018-05-24T13:44:51.437Z,101726.34
2018-05-24T13:47:57.208Z,101722.84
2018-05-24T13:51:02.916Z,101718.00
2018-05-24T13:54:08.669Z,101715.03
2018-05-24T13:57:14.505Z,101718.16
2018-05-24T14:00:19.236Z,101710.78
2018-05-24T14:03:24.950Z,101706.92
2018-05-24T14:06:30.145Z,101709.24
2018-05-24T14:09:35.352Z,101711.76
2018-05-24T14:12:41.190Z,101710.33
2018-05-24T14:15:46.832Z,101704.16
2018-05-24T14:18:52.459Z,101706.03
2018-05-24T14:21:58.360Z,101702.88
2018-05-24T14:25:04.256Z,101699.08
2018-05-24T14:28:09.127Z,101690.63
2018-05-24T14:31:14.746Z,101688.20
2018-05-24T14:34:19.867Z,101685.09
2018-05-24T14:37:25.399Z,101694.44
2018-05-24T14:40:30.915Z,101685.47
2018-05-24T14:43:37.306Z,101685.81
2018-05-24T14:46:42.916Z,101676.16
2018-05-24T14:49:48.130Z,101678.33
2018-05-24T14:52:53.459Z,101671.94
2018-05-24T14:55:58.064Z,101669.00
2018-05-24T14:59:03.061Z,101667.80
2018-05-24T15:02:08.727Z,101667.86
2018-05-24T15:05:14.464Z,101666.47
2018-05-24T15:08:19.441Z,101664.78
2018-05-24T15:11:24.667Z,101663.80
2018-05-24T15:14:29.619Z,101660.79
2018-05-24T15:17:34.585Z,101660.93
2018-05-24T15:20:39.658Z,101661.09
2018-05-24T15:23:44.585Z,101665.70
2018-05-24T15:26:50.492Z,101654.95
2018-05-24T15:29:55.421Z,101658.56
2018-05-24T15:33:00.867Z,101645.66
2018-05-24T15:36:05.836Z,101658.33
2018-05-24T15:39:10.820Z,101648.89
2018-05-24T15:42:17.068Z,101650.86
2018-05-24T15:45:23.039Z,101641.42
2018-05-24T15:48:28.832Z,101648.23
2018-05-24T15:51:34.689Z,101644.21
2018-05-24T15:54:40.813Z,101642.97
2018-05-24T15:57:46.447Z,101636.10
2018-05-24T16:00:53.176Z,101629.31
2018-05-24T16:03:58.780Z,101628.23
2018-05-24T16:07:04.548Z,101626.05
2018-05-24T16:10:09.475Z,101631.75
2018-05-24T16:13:15.392Z,101619.80
2018-05-24T16:16:20.943Z,101626.73
2018-05-24T16:19:25.931Z,101629.89
2018-05-24T16:22:31.007Z,101619.05
2018-05-24T16:25:36.046Z,101625.81
2018-05-24T16:28:41.495Z,101624.73
2018-05-24T16:31:46.420Z,101619.94
2018-05-24T16:34:51.840Z,101613.86
2018-05-24T16:37:57.144Z,101615.86
2018-05-24T16:41:03.342Z,101621.52
2018-05-24T16:44:08.693Z,101616.22
2018-05-24T16:47:14.549Z,101614.25
2018-05-24T16:50:19.889Z,101620.09
2018-05-24T16:53:25.828Z,101615.49
2018-05-24T16:56:31.375Z,101625.52
2018-05-24T16:59:37.841Z,101619.77
2018-05-24T17:02:42.757Z,101624.19
2018-05-24T17:05:48.605Z,101623.09
2018-05-24T17:08:53.936Z,101622.48
2018-05-24T17:11:58.867Z,101626.75
2018-05-24T17:15:04.194Z,101620.11
2018-05-24T17:18:09.143Z,101623.20
2018-05-24T17:21:14.579Z,101624.66
2018-05-24T17:24:20.015Z,101630.95
2018-05-24T17:27:25.887Z,101626.84
2018-05-24T17:30:31.227Z,101627.84
2018-05-24T17:33:37.076Z,101625.75
2018-05-24T17:36:43.354Z,101618.23
2018-05-24T17:39:48.272Z,101619.63
2018-05-24T17:42:54.661Z,101620.63
2018-05-24T17:45:59.577Z,101626.61
2018-05-24T17:49:05.456Z,101629.11
2018-05-24T17:52:10.382Z,101628.19
2018-05-24T17:55:16.030Z,101629.44
2018-05-24T17:58:21.466Z,101630.06
2018-05-24T18:01:26.831Z,101628.28
2018-05-24T18:04:31.761Z,101627.79
2018-05-24T18:07:39.007Z,101637.19
2018-05-24T18:10:44.536Z,101637.59
2018-05-24T18:13:49.980Z,101636.03
2018-05-24T18:16:55.604Z,101634.58
2018-05-24T18:20:00.976Z,101635.73
2018-05-24T18:23:06.896Z,101636.05
2018-05-24T18:26:12.457Z,101640.19
2018-05-24T18:29:18.311Z,101648.28
2018-05-24T18:32:23.704Z,101644.25
2018-05-24T18:35:28.791Z,101633.46
2018-05-24T18:38:33.730Z,101641.50
2018-05-24T18:41:38.664Z,101640.28
2018-05-24T18:44:43.596Z,101641.76
2018-05-24T18:47:48.515Z,101651.44
2018-05-24T18:50:54.086Z,101656.98
2018-05-24T18:53:59.892Z,101662.08
2018-05-24T18:57:05.901Z,101664.81
2018-05-24T19:00:10.811Z,101669.06
2018-05-24T19:03:16.261Z,101667.37
2018-05-24T19:06:21.183Z,101674.97
2018-05-24T19:09:26.528Z,101674.70
2018-05-24T19:12:31.440Z,101674.92
2018-05-24T19:15:37.276Z,101680.28
2018-05-24T19:18:42.240Z,101685.73
2018-05-24T19:21:48.877Z,101683.55
2018-05-24T19:24:55.352Z,101681.47
2018-05-24T19:28:00.698Z,101687.76
2018-05-24T19:31:05.048Z,101683.25
2018-05-24T19:34:11.265Z,101688.05
2018-05-24T19:37:17.543Z,101691.73
2018-05-24T19:40:23.483Z,101690.22
2018-05-24T19:43:29.012Z,101696.68
2018-05-24T19:46:33.960Z,101701.23
2018-05-24T19:49:38.881Z,101700.89
2018-05-24T19:52:44.711Z,101703.94
2018-05-24T19:55:50.060Z,101696.88
2018-05-24T19:58:56.088Z,101696.87
2018-05-24T20:02:02.153Z,101708.33
2018-05-24T20:05:07.527Z,101705.35
2018-05-24T20:08:12.498Z,101708.34
2018-05-24T20:11:17.491Z,101717.85
2018-05-24T20:14:23.170Z,101720.11
2018-05-24T20:17:28.136Z,101718.68
2018-05-24T20:20:33.128Z,101724.73
2018-05-24T20:23:38.620Z,101726.74
2018-05-24T20:26:43.606Z,101721.52
2018-05-24T20:29:49.490Z,101726.73
2018-05-24T20:32:54.522Z,101728.95
2018-05-24T20:35:59.670Z,101727.20
2018-05-24T20:39:07.402Z,101728.03
2018-05-24T20:42:13.467Z,101731.79
2018-05-24T20:45:18.943Z,101726.09
2018-05-24T20:48:24.648Z,101730.55
2018-05-24T20:51:29.785Z,101731.33
2018-05-24T20:54:34.765Z,101730.50
2018-05-24T20:57:39.777Z,101727.39
2018-05-24T21:00:44.817Z,101729.09
2018-05-24T21:03:49.767Z,101729.52
2018-05-24T21:06:54.799Z,101722.64
2018-05-24T21:10:00.499Z,101726.95
2018-05-24T21:13:06.484Z,101727.20
2018-05-24T21:16:11.603Z,101725.70
2018-05-24T21:19:16.660Z,101726.28
2018-05-24T21:22:21.665Z,101727.04
2018-05-24T21:25:27.319Z,101725.31
2018-05-24T21:28:33.242Z,101726.86
2018-05-24T21:31:38.221Z,101728.34
2018-05-24T21:34:43.293Z,101734.14
2018-05-24T21:37:48.433Z,101733.88
2018-05-24T21:40:54.841Z,101739.83
2018-05-24T21:44:00.451Z,101732.11
2018-05-24T21:47:06.445Z,101734.20
2018-05-24T21:50:11.687Z,101731.54
2018-05-24T21:53:16.659Z,101724.87
2018-05-24T21:56:23.183Z,101728.97
2018-05-24T21:59:28.766Z,101722.30
2018-05-24T22:02:34.468Z,101727.34
2018-05-24T22:05:39.434Z,101730.61
2018-05-24T22:08:44.408Z,101732.64
2018-05-24T22:11:50.834Z,101737.30
2018-05-24T22:14:55.818Z,101735.87
2018-05-24T22:18:01.484Z,101730.31
2018-05-24T22:21:06.099Z,101732.86
2018-05-24T22:24:11.891Z,101734.44
2018-05-24T22:27:16.835Z,101729.63
2018-05-24T22:30:22.315Z,101731.52
2018-05-24T22:33:27.728Z,101729.13
2018-05-24T22:36:33.714Z,101727.30
2018-05-24T22:39:39.193Z,101726.34
2018-05-24T22:42:44.668Z,101727.16
2018-05-24T22:45:49.928Z,101726.56
2018-05-24T22:48:55.210Z,101724.84
2018-05-24T22:52:01.357Z,101722.05
2018-05-24T22:55:07.577Z,101726.86
2018-05-24T22:58:12.881Z,101713.77
2018-05-24T23:01:19.699Z,101715.61
2018-05-24T23:04:24.964Z,101719.08
2018-05-24T23:07:31.458Z,101718.52
2018-05-24T23:10:37.729Z,101718.50
2018-05-24T23:13:43.705Z,101720.20
2018-05-24T23:16:49.661Z,101714.55
2018-05-24T23:19:55.822Z,101718.83
2018-05-24T23:23:01.944Z,101721.52
2018-05-24T23:26:08.839Z,101722.23
2018-05-24T23:29:15.131Z,101723.48
2018-05-24T23:32:20.662Z,101715.80
2018-05-24T23:35:26.727Z,101712.00
2018-05-24T23:38:32.828Z,101712.77
2018-05-24T23:41:39.027Z,101717.43
2018-05-24T23:44:45.215Z,101719.83
2018-05-24T23:47:52.274Z,101716.11
2018-05-24T23:50:57.544Z,101717.34
2018-05-24T23:54:03.223Z,101716.91
2018-05-24T23:57:09.259Z,101720.55
